Terminal Aerodrome Forecast
Issued by NWS

Home | Current Version | Previous Version | Graphics & Text | Print | Product List | Glossary On
Versions: 1 2 3 4 5 6 7 8 9 10 11 12 13 14 15 16 17
407
FTUS43 KGRB 241508 AAC
TAFAUW
TAF AMD
KAUW 241508Z 2415/2512 21009KT 5SM BR OVC003
     FM241600 21011KT P6SM SCT012 BKN025
     FM241700 27012G17KT P6SM BKN035
     FM241900 27011G19KT P6SM SCT045
     FM242100 28012G21KT P6SM SCT200
     FM250200 28008KT P6SM FEW250=

USA.gov is the U.S. government's official web portal to all federal, state and local government web resources and services.